createdAt,value
2018-07-15T00:00:58.632Z,12.67
2018-07-15T00:03:27.572Z,13.00
2018-07-15T00:05:56.162Z,13.90
2018-07-15T00:08:25.324Z,13.80
2018-07-15T00:10:53.888Z,12.70
2018-07-15T00:13:22.491Z,13.07
2018-07-15T00:15:51.728Z,13.27
2018-07-15T00:18:21.693Z,13.25
2018-07-15T00:20:50.265Z,13.10
2018-07-15T00:23:18.981Z,12.97
2018-07-15T00:25:47.844Z,13.23
2018-07-15T00:28:17.813Z,12.90
2018-07-15T00:30:46.644Z,12.97
2018-07-15T00:33:15.900Z,13.20
2018-07-15T00:35:44.549Z,12.83
2018-07-15T00:38:13.174Z,14.10
2018-07-15T00:40:41.832Z,13.48
2018-07-15T00:43:10.554Z,13.87
2018-07-15T00:45:39.325Z,13.18
2018-07-15T00:48:07.908Z,13.20
2018-07-15T00:50:36.764Z,13.20
2018-07-15T00:53:05.288Z,13.53
2018-07-15T00:55:33.864Z,12.30
2018-07-15T00:58:03.646Z,13.63
2018-07-15T01:00:37.276Z,13.07
2018-07-15T01:03:06.139Z,13.50
2018-07-15T01:05:34.767Z,13.43
2018-07-15T01:08:03.325Z,13.80
2018-07-15T01:10:31.929Z,13.33
2018-07-15T01:13:07.168Z,13.30
2018-07-15T01:15:35.891Z,13.90
2018-07-15T01:18:05.033Z,14.10
2018-07-15T01:20:33.600Z,13.45
2018-07-15T01:23:02.112Z,13.63
2018-07-15T01:25:31.104Z,13.33
2018-07-15T01:27:59.798Z,13.77
2018-07-15T01:30:28.532Z,13.33
2018-07-15T01:32:57.372Z,13.75
2018-07-15T01:35:25.933Z,14.40
2018-07-15T01:37:54.501Z,13.37
2018-07-15T01:40:23.429Z,14.23
2018-07-15T01:42:52.424Z,14.63
2018-07-15T01:45:21.155Z,13.00
2018-07-15T01:47:50.510Z,13.70
2018-07-15T01:50:19.255Z,13.77
2018-07-15T01:52:48.692Z,13.47
2018-07-15T01:55:17.199Z,13.70
2018-07-15T01:57:45.971Z,14.85
2018-07-15T02:00:15.560Z,14.20
2018-07-15T02:02:44.092Z,14.80
2018-07-15T02:05:13.148Z,15.20
2018-07-15T02:07:43.136Z,13.65
2018-07-15T02:10:11.717Z,13.87
2018-07-15T02:12:40.660Z,13.03
2018-07-15T02:15:09.172Z,14.00
2018-07-15T02:17:37.985Z,13.95
2018-07-15T02:20:06.530Z,14.30
2018-07-15T02:22:35.057Z,14.70
2018-07-15T02:25:03.744Z,14.37
2018-07-15T02:27:32.214Z,13.83
2018-07-15T02:30:01.980Z,14.07
2018-07-15T02:32:31.009Z,12.80
2018-07-15T02:35:00.473Z,14.20
2018-07-15T02:37:30.487Z,13.80
2018-07-15T02:39:59.328Z,14.77
2018-07-15T02:42:28.492Z,15.77
2018-07-15T02:44:57.115Z,15.30
2018-07-15T02:47:25.591Z,15.00
2018-07-15T02:49:54.234Z,15.10
2018-07-15T02:52:29.089Z,15.38
2018-07-15T02:54:57.579Z,15.45
2018-07-15T02:57:26.239Z,14.67
2018-07-15T02:59:56.249Z,14.53
2018-07-15T03:02:24.918Z,15.23
2018-07-15T03:04:53.467Z,14.67
2018-07-15T03:07:28.415Z,14.63
2018-07-15T03:09:57.054Z,14.43
2018-07-15T03:12:26.265Z,14.13
2018-07-15T03:14:56.013Z,14.27
2018-07-15T03:17:24.917Z,16.23
2018-07-15T03:19:53.452Z,15.07
2018-07-15T03:22:22.031Z,13.53
2018-07-15T03:24:50.629Z,14.43
2018-07-15T03:27:19.166Z,14.23
2018-07-15T03:29:47.699Z,14.60
2018-07-15T03:32:16.393Z,14.53
2018-07-15T03:34:45.056Z,14.03
2018-07-15T03:37:14.673Z,14.90
2018-07-15T03:39:46.090Z,13.70
2018-07-15T03:42:14.585Z,14.53
2018-07-15T03:44:44.284Z,15.27
2018-07-15T03:47:12.838Z,14.03
2018-07-15T03:49:41.306Z,14.73
2018-07-15T03:52:09.852Z,14.83
2018-07-15T03:54:38.453Z,15.73
2018-07-15T03:57:06.968Z,15.80
2018-07-15T03:59:35.545Z,14.03
2018-07-15T04:02:04.283Z,14.03
2018-07-15T04:04:32.950Z,15.10
2018-07-15T04:07:01.464Z,14.93
2018-07-15T04:09:30.004Z,14.60
2018-07-15T04:11:59.190Z,14.40
2018-07-15T04:14:28.017Z,14.77
2018-07-15T04:16:56.963Z,14.27
2018-07-15T04:19:25.814Z,13.83
2018-07-15T04:21:54.915Z,14.50
2018-07-15T04:24:23.786Z,13.90
2018-07-15T04:26:52.433Z,14.10
2018-07-15T04:29:20.953Z,15.17
2018-07-15T04:31:49.447Z,13.10
2018-07-15T04:34:17.979Z,14.37
2018-07-15T04:36:46.528Z,14.35
2018-07-15T04:39:15.013Z,13.90
2018-07-15T04:41:43.487Z,13.32
2018-07-15T04:44:13.077Z,13.93
2018-07-15T04:46:41.634Z,13.37
2018-07-15T04:49:10.196Z,13.50
2018-07-15T04:51:38.796Z,14.10
2018-07-15T04:54:07.316Z,14.40
2018-07-15T04:56:36.215Z,12.83
2018-07-15T04:59:04.770Z,12.73
2018-07-15T05:01:33.315Z,13.93
2018-07-15T05:04:01.825Z,13.17
2018-07-15T05:06:30.288Z,13.60
2018-07-15T05:08:58.833Z,14.50
2018-07-15T05:11:27.350Z,13.43
2018-07-15T05:13:55.867Z,13.00
2018-07-15T05:16:24.331Z,13.07
2018-07-15T05:18:52.851Z,12.73
2018-07-15T05:21:21.427Z,13.62
2018-07-15T05:23:56.611Z,11.70
2018-07-15T05:26:25.116Z,12.57
2018-07-15T05:28:53.639Z,12.93
2018-07-15T05:31:22.156Z,13.03
2018-07-15T05:33:50.662Z,12.85
2018-07-15T05:36:19.252Z,12.87
2018-07-15T05:38:47.808Z,12.90
2018-07-15T05:41:16.369Z,12.07
2018-07-15T05:43:45.910Z,11.50
2018-07-15T05:46:14.405Z,12.60
2018-07-15T05:48:42.906Z,12.10
2018-07-15T05:51:11.430Z,11.83
2018-07-15T05:53:40.172Z,11.70
2018-07-15T05:56:08.668Z,12.00
2018-07-15T05:58:37.167Z,12.10
2018-07-15T06:01:05.965Z,11.78
2018-07-15T06:03:35.020Z,11.93
2018-07-15T06:06:03.502Z,12.60
2018-07-15T06:08:32.033Z,11.88
2018-07-15T06:11:00.539Z,11.80
2018-07-15T06:13:29.127Z,11.17
2018-07-15T06:15:57.613Z,12.33
2018-07-15T06:18:26.140Z,11.87
2018-07-15T06:20:54.702Z,11.80
2018-07-15T06:23:23.312Z,11.87
2018-07-15T06:25:51.767Z,10.70
2018-07-15T06:28:20.418Z,11.30
2018-07-15T06:30:48.946Z,11.37
2018-07-15T06:33:17.482Z,11.40
2018-07-15T06:35:46.139Z,11.50
2018-07-15T06:38:14.982Z,10.77
2018-07-15T06:40:44.734Z,11.63
2018-07-15T06:43:13.702Z,11.37
2018-07-15T06:45:43.235Z,10.65
2018-07-15T06:48:12.626Z,11.60
2018-07-15T06:50:42.782Z,9.90
2018-07-15T06:53:11.585Z,11.53
2018-07-15T06:55:41.293Z,10.23
2018-07-15T06:58:10.061Z,10.80
2018-07-15T07:00:40.888Z,10.68
2018-07-15T07:03:13.185Z,10.30
2018-07-15T07:05:41.825Z,11.17
2018-07-15T07:08:10.372Z,10.97
2018-07-15T07:10:39.739Z,10.50
2018-07-15T07:13:08.556Z,11.67
2018-07-15T07:15:37.033Z,9.30
2018-07-15T07:18:05.849Z,9.47
2018-07-15T07:20:34.496Z,10.20
2018-07-15T07:23:03.076Z,10.23
2018-07-15T07:25:31.799Z,9.00
2018-07-15T07:28:01.004Z,9.58
2018-07-15T07:30:29.762Z,10.40
2018-07-15T07:32:58.416Z,9.97
2018-07-15T07:35:27.142Z,10.20
2018-07-15T07:37:55.659Z,9.73
2018-07-15T07:40:24.205Z,10.70
2018-07-15T07:42:52.791Z,9.40
2018-07-15T07:45:21.492Z,9.37
2018-07-15T07:47:50.189Z,10.80
2018-07-15T07:50:18.799Z,9.57
2018-07-15T07:52:47.348Z,10.40
2018-07-15T07:55:21.499Z,10.10
2018-07-15T07:57:51.904Z,9.77
2018-07-15T08:00:20.614Z,9.57
2018-07-15T08:02:50.007Z,9.20
2018-07-15T08:05:18.876Z,8.95
2018-07-15T08:07:49.459Z,8.50
2018-07-15T08:10:18.044Z,9.20
2018-07-15T08:12:46.561Z,9.00
2018-07-15T08:15:15.069Z,8.40
2018-07-15T08:17:43.604Z,8.83
2018-07-15T08:20:12.140Z,9.20
2018-07-15T08:22:40.758Z,9.58
2018-07-15T08:25:09.395Z,8.70
2018-07-15T08:27:37.961Z,8.40
2018-07-15T08:30:17.452Z,8.83
2018-07-15T08:32:46.041Z,8.20
2018-07-15T08:35:14.635Z,7.45
2018-07-15T08:37:43.180Z,8.63
2018-07-15T08:40:11.723Z,8.73
2018-07-15T08:42:41.325Z,8.13
2018-07-15T08:45:09.972Z,9.50
2018-07-15T08:47:44.671Z,8.67
2018-07-15T08:50:13.254Z,8.10
2018-07-15T08:52:41.787Z,8.07
2018-07-15T08:55:12.722Z,7.90
2018-07-15T08:57:44.835Z,7.20
2018-07-15T09:00:13.465Z,7.73
2018-07-15T09:02:42.271Z,7.50
2018-07-15T09:05:10.902Z,7.93
2018-07-15T09:07:39.684Z,7.90
2018-07-15T09:10:08.381Z,8.07
2018-07-15T09:12:37.437Z,7.90
2018-07-15T09:15:06.043Z,6.97
2018-07-15T09:17:34.781Z,7.33
2018-07-15T09:20:04.278Z,7.33
2018-07-15T09:22:32.779Z,6.37
2018-07-15T09:25:01.339Z,7.00
2018-07-15T09:27:29.863Z,7.10
2018-07-15T09:29:58.435Z,7.23
2018-07-15T09:32:26.994Z,7.00
2018-07-15T09:34:55.815Z,6.12
2018-07-15T09:37:24.302Z,6.60
2018-07-15T09:39:52.824Z,6.33
2018-07-15T09:42:22.278Z,5.90
2018-07-15T09:44:51.099Z,6.53
2018-07-15T09:47:19.728Z,5.93
2018-07-15T09:49:48.372Z,5.60
2018-07-15T09:52:16.899Z,6.47
2018-07-15T09:54:45.504Z,5.17
2018-07-15T09:57:14.023Z,5.73
2018-07-15T09:59:42.815Z,5.58
2018-07-15T10:02:11.749Z,4.87
2018-07-15T10:04:40.420Z,5.67
2018-07-15T10:07:09.015Z,4.15
2018-07-15T10:09:37.510Z,4.60
2018-07-15T10:12:06.359Z,4.43
2018-07-15T10:14:35.656Z,4.87
2018-07-15T10:17:04.313Z,4.77
2018-07-15T10:19:32.808Z,4.80
2018-07-15T10:22:01.784Z,4.57
2018-07-15T10:24:30.516Z,3.90
2018-07-15T10:26:59.408Z,4.25
2018-07-15T10:29:27.932Z,4.13
2018-07-15T10:31:56.446Z,3.80
2018-07-15T10:34:25.020Z,3.40
2018-07-15T11:16:46.125Z,3.87
2018-07-15T11:19:14.799Z,3.70
2018-07-15T11:21:43.453Z,3.40
2018-07-15T11:24:15.180Z,3.40
2018-07-15T11:26:54.709Z,3.55
2018-07-15T11:29:23.754Z,3.10
2018-07-15T11:31:54.438Z,3.10
2018-07-15T11:34:22.961Z,3.60
2018-07-15T11:36:51.506Z,3.70
2018-07-15T11:39:20.608Z,4.07
2018-07-15T11:41:49.169Z,3.80
2018-07-15T11:44:17.740Z,4.12
2018-07-15T11:46:46.427Z,4.40
2018-07-15T11:49:15.120Z,4.13
2018-07-15T11:51:43.755Z,4.05
2018-07-15T11:54:12.295Z,3.85
2018-07-15T11:56:41.756Z,3.97
2018-07-15T11:59:10.309Z,3.83
2018-07-15T12:01:39.057Z,3.87
2018-07-15T12:04:07.979Z,3.80
2018-07-15T12:06:36.483Z,4.00
2018-07-15T12:09:05.937Z,3.53
2018-07-15T12:11:38.840Z,2.92
2018-07-15T12:14:07.401Z,3.70
2018-07-15T12:16:35.991Z,3.83
2018-07-15T12:19:04.580Z,4.40
2018-07-15T12:21:33.106Z,4.17
2018-07-15T12:24:13.680Z,4.80
2018-07-15T12:26:55.327Z,3.42
2018-07-15T12:32:19.185Z,3.37
2018-07-15T12:34:56.734Z,3.80
2018-07-15T12:37:26.901Z,3.13
2018-07-15T12:39:58.298Z,3.40
2018-07-15T12:42:26.878Z,3.00
2018-07-15T12:44:55.069Z,2.93
2018-07-15T12:47:23.281Z,2.80
2018-07-15T12:49:58.390Z,2.87
2018-07-15T12:52:27.299Z,2.67
2018-07-15T12:54:56.870Z,2.73
2018-07-15T12:57:25.106Z,2.90
2018-07-15T12:59:53.353Z,2.77
2018-07-15T13:02:21.522Z,2.60
2018-07-15T13:04:49.740Z,2.90
2018-07-15T13:07:17.908Z,2.50
2018-07-15T13:09:46.081Z,2.70
2018-07-15T13:12:14.374Z,2.70
2018-07-15T13:14:42.539Z,2.40
2018-07-15T13:17:10.758Z,2.47
2018-07-15T13:19:40.365Z,2.47
2018-07-15T13:22:08.536Z,1.90
2018-07-15T13:24:36.728Z,2.30
2018-07-15T13:27:04.965Z,2.03
2018-07-15T13:29:33.140Z,2.10
2018-07-15T13:32:01.581Z,2.83
2018-07-15T13:34:29.851Z,2.40
2018-07-15T13:36:58.092Z,2.37
2018-07-15T13:39:30.814Z,2.43
2018-07-15T13:41:59.290Z,2.53
2018-07-15T13:44:27.429Z,2.50
2018-07-15T13:46:56.155Z,1.90
2018-07-15T13:49:26.136Z,1.97
2018-07-15T13:51:54.409Z,2.40
2018-07-15T13:54:24.387Z,2.30
2018-07-15T13:56:53.090Z,2.27
2018-07-15T13:59:21.259Z,1.87
2018-07-15T14:02:13.394Z,2.00
2018-07-15T14:04:42.755Z,1.90
2018-07-15T14:07:10.978Z,2.37
2018-07-15T14:09:39.189Z,2.00
2018-07-15T14:12:08.264Z,2.30
2018-07-15T14:14:36.514Z,2.00
2018-07-15T14:17:04.727Z,2.47
2018-07-15T14:19:32.950Z,2.47
2018-07-15T14:22:03.014Z,2.23
2018-07-15T14:24:31.471Z,2.27
2018-07-15T14:26:59.651Z,2.23
2018-07-15T14:29:27.862Z,2.50
2018-07-15T14:31:56.089Z,2.57
2018-07-15T14:34:24.269Z,2.73
2018-07-15T14:36:52.423Z,2.80
2018-07-15T14:39:20.614Z,2.50
2018-07-15T14:41:48.808Z,2.80
2018-07-15T14:44:17.042Z,2.77
2018-07-15T14:46:45.225Z,3.10
2018-07-15T14:49:14.059Z,3.30
2018-07-15T14:51:42.362Z,2.40
2018-07-15T14:54:10.618Z,2.27
2018-07-15T14:56:40.895Z,3.00
2018-07-15T14:59:09.111Z,3.23
2018-07-15T15:01:37.265Z,3.47
2018-07-15T15:04:07.078Z,2.60
2018-07-15T15:06:35.951Z,2.50
2018-07-15T15:09:05.553Z,2.47
2018-07-15T15:11:33.854Z,2.40
2018-07-15T15:14:02.026Z,3.00
2018-07-15T15:16:30.956Z,2.57
2018-07-15T15:18:59.343Z,2.60
2018-07-15T15:21:30.836Z,2.60
2018-07-15T15:23:59.259Z,2.40
2018-07-15T15:26:28.624Z,2.20
2018-07-15T15:28:56.882Z,2.07
2018-07-15T15:31:25.081Z,2.30
2018-07-15T15:33:53.395Z,2.30
2018-07-15T15:36:21.677Z,2.47
2018-07-15T15:38:49.807Z,2.53
2018-07-15T15:41:18.072Z,3.03
2018-07-15T15:43:46.348Z,2.40
2018-07-15T15:46:14.548Z,2.93
2018-07-15T15:48:43.449Z,4.07
2018-07-15T15:51:11.631Z,3.10
2018-07-15T15:53:39.858Z,3.90
2018-07-15T15:56:08.197Z,2.93
2018-07-15T15:58:39.215Z,2.83
2018-07-15T16:01:17.416Z,2.70
2018-07-15T16:03:45.760Z,2.80
2018-07-15T16:06:15.926Z,2.83
2018-07-15T16:08:46.895Z,2.60
2018-07-15T16:11:19.033Z,2.70
2018-07-15T16:13:47.762Z,2.63
2018-07-15T16:16:16.520Z,2.77
2018-07-15T16:18:44.708Z,2.40
2018-07-15T16:21:13.002Z,3.30
2018-07-15T16:23:41.215Z,2.67
2018-07-15T16:26:09.444Z,2.87
2018-07-15T16:28:38.192Z,2.97
2018-07-15T16:31:06.471Z,2.90
2018-07-15T16:33:34.609Z,2.93
2018-07-15T16:36:02.907Z,3.30
2018-07-15T16:38:31.188Z,3.03
2018-07-15T16:40:59.539Z,3.13
2018-07-15T16:43:27.774Z,2.77
2018-07-15T16:45:56.053Z,2.67
2018-07-15T16:48:24.842Z,2.83
2018-07-15T16:50:53.363Z,2.80
2018-07-15T16:53:21.907Z,3.07
2018-07-15T16:55:51.431Z,2.63
2018-07-15T16:58:19.861Z,3.30
2018-07-15T17:00:49.032Z,3.02
2018-07-15T17:03:17.855Z,3.08
2018-07-15T17:05:46.597Z,3.37
2018-07-15T17:08:15.441Z,3.90
2018-07-15T17:10:45.674Z,3.23
2018-07-15T17:13:14.701Z,3.70
2018-07-15T17:15:43.402Z,3.00
2018-07-15T17:18:14.705Z,3.17
2018-07-15T17:20:43.227Z,3.07
2018-07-15T17:23:11.495Z,2.97
2018-07-15T17:25:39.730Z,3.17
2018-07-15T17:28:12.306Z,3.10
2018-07-15T17:30:40.858Z,3.30
2018-07-15T17:33:10.170Z,3.37
2018-07-15T17:35:39.655Z,2.80
2018-07-15T17:38:08.224Z,5.00
2018-07-15T17:40:36.465Z,5.60
2018-07-15T17:43:05.287Z,6.07
2018-07-15T17:45:33.516Z,6.40
2018-07-15T17:48:02.130Z,6.90
2018-07-15T17:50:34.584Z,7.00
2018-07-15T17:53:03.190Z,6.37
2018-07-15T17:55:31.478Z,6.17
2018-07-15T17:58:00.059Z,6.07
2018-07-15T18:00:29.180Z,7.00
2018-07-15T18:02:57.856Z,6.07
2018-07-15T18:05:26.750Z,5.90
2018-07-15T18:07:55.057Z,6.35
2018-07-15T18:10:24.489Z,6.03
2018-07-15T18:12:52.994Z,6.37
2018-07-15T18:15:21.523Z,5.87
2018-07-15T18:17:50.663Z,6.28
2018-07-15T18:20:19.208Z,6.73
2018-07-15T18:22:47.823Z,6.10
2018-07-15T18:25:16.440Z,6.87
2018-07-15T18:27:44.650Z,6.90
2018-07-15T18:30:13.324Z,6.30
2018-07-15T18:32:42.047Z,6.23
2018-07-15T18:35:10.872Z,7.43
2018-07-15T18:37:39.416Z,8.00
2018-07-15T18:40:08.181Z,6.80
2018-07-15T18:42:36.951Z,7.60
2018-07-15T18:45:06.601Z,8.53
2018-07-15T18:47:35.188Z,7.70
2018-07-15T18:50:03.751Z,7.33
2018-07-15T18:52:32.597Z,7.23
2018-07-15T18:55:02.651Z,8.13
2018-07-15T18:57:32.422Z,8.30
2018-07-15T19:00:00.601Z,7.43
2018-07-15T19:02:29.147Z,7.70
2018-07-15T19:04:57.704Z,6.90
2018-07-15T19:07:26.306Z,6.50
2018-07-15T19:09:54.789Z,6.30
2018-07-15T19:12:23.340Z,6.90
2018-07-15T19:14:51.845Z,6.60
2018-07-15T19:17:20.485Z,6.60
2018-07-15T19:19:49.036Z,7.27
2018-07-15T19:22:17.592Z,7.60
2018-07-15T19:24:46.122Z,7.20
2018-07-15T19:27:14.639Z,7.50
2018-07-15T19:29:43.148Z,7.50
2018-07-15T19:32:11.743Z,6.47
2018-07-15T19:34:39.901Z,7.30
2018-07-15T19:37:08.464Z,7.80
2018-07-15T19:39:36.995Z,7.10
2018-07-15T19:42:05.543Z,7.87
2018-07-15T19:44:34.279Z,7.47
2018-07-15T19:47:02.480Z,7.67
2018-07-15T19:49:30.952Z,8.27
2018-07-15T19:52:00.343Z,7.40
2018-07-15T19:54:30.725Z,7.43
2018-07-15T19:57:01.743Z,6.50
2018-07-15T19:59:30.841Z,6.67
2018-07-15T20:02:00.105Z,8.07
2018-07-15T20:04:29.839Z,7.63
2018-07-15T20:06:58.408Z,8.10
2018-07-15T20:09:27.048Z,7.80
2018-07-15T20:11:59.578Z,6.92
2018-07-15T20:14:28.375Z,7.17
2018-07-15T20:16:56.940Z,7.20
2018-07-15T20:19:28.372Z,7.60
2018-07-15T20:21:56.990Z,7.23
2018-07-15T20:24:25.596Z,8.20
2018-07-15T20:26:54.124Z,7.67
2018-07-15T20:29:22.752Z,7.67
2018-07-15T20:31:51.379Z,7.95
2018-07-15T20:34:20.001Z,7.17
2018-07-15T20:36:48.679Z,7.35
2018-07-15T20:39:17.307Z,7.80
2018-07-15T20:41:45.937Z,8.13
2018-07-15T20:44:14.470Z,7.90
2018-07-15T20:46:43.102Z,7.70
2018-07-15T20:49:11.655Z,7.90
2018-07-15T20:51:40.277Z,7.30
2018-07-15T20:54:08.884Z,7.63
2018-07-15T20:56:40.916Z,7.40
2018-07-15T20:59:09.529Z,7.90
2018-07-15T21:01:38.171Z,6.53
2018-07-15T21:04:06.709Z,7.62
2018-07-15T21:06:36.056Z,7.83
2018-07-15T21:09:11.202Z,6.93
2018-07-15T21:11:39.734Z,7.00
2018-07-15T21:14:08.206Z,6.83
2018-07-15T21:16:36.771Z,7.03
2018-07-15T21:19:05.673Z,7.45
2018-07-15T21:21:36.167Z,6.77
2018-07-15T21:24:05.988Z,7.53
2018-07-15T21:26:34.571Z,6.78
2018-07-15T21:29:04.450Z,6.90
2018-07-15T21:31:37.857Z,7.33
2018-07-15T21:34:06.599Z,7.57
2018-07-15T21:36:35.350Z,7.07
2018-07-15T21:39:04.397Z,7.40
2018-07-15T21:41:33.642Z,7.12
2018-07-15T21:44:11.312Z,8.07
2018-07-15T21:46:39.815Z,7.40
2018-07-15T21:49:10.353Z,7.70
2018-07-15T21:51:40.678Z,8.07
2018-07-15T21:54:09.760Z,7.85
2018-07-15T21:56:52.800Z,8.37
2018-07-15T21:59:39.072Z,8.00
2018-07-15T22:02:07.643Z,7.70
2018-07-15T22:04:36.207Z,8.00
2018-07-15T22:07:15.682Z,6.93
2018-07-15T22:09:55.778Z,6.70
2018-07-15T22:12:24.277Z,6.63
2018-07-15T22:14:53.002Z,7.15
2018-07-15T22:17:24.877Z,6.58
2018-07-15T22:19:53.390Z,6.87
2018-07-15T22:22:21.907Z,6.30
2018-07-15T22:24:50.431Z,6.17
2018-07-15T22:27:19.034Z,6.60
2018-07-15T22:29:47.553Z,7.40
2018-07-15T22:32:16.120Z,7.53
2018-07-15T22:34:44.594Z,8.30
2018-07-15T22:37:13.094Z,8.23
2018-07-15T22:39:41.589Z,9.20
2018-07-15T22:42:10.172Z,9.10
2018-07-15T22:44:38.664Z,9.60
2018-07-15T22:47:08.687Z,9.60
2018-07-15T22:49:37.123Z,9.57
2018-07-15T22:52:05.686Z,9.03
2018-07-15T22:54:34.143Z,8.90
2018-07-15T22:57:05.363Z,8.73
2018-07-15T22:59:36.205Z,8.60
2018-07-15T23:02:04.795Z,9.17
2018-07-15T23:06:39.816Z,9.50
2018-07-15T23:09:09.576Z,8.30
2018-07-15T23:11:38.062Z,9.73
2018-07-15T23:14:06.539Z,10.05
2018-07-15T23:16:35.003Z,9.50
2018-07-15T23:19:09.745Z,9.70
2018-07-15T23:21:38.324Z,9.23
2018-07-15T23:24:06.830Z,9.27
2018-07-15T23:26:35.336Z,10.03
2018-07-15T23:29:03.895Z,8.83
2018-07-15T23:31:32.404Z,10.43
2018-07-15T23:34:00.915Z,10.13
2018-07-15T23:36:29.524Z,10.00
2018-07-15T23:38:57.997Z,9.50
2018-07-15T23:41:26.467Z,9.07
2018-07-15T23:44:01.203Z,10.03
2018-07-15T23:46:29.859Z,9.50
2018-07-15T23:48:58.318Z,9.10
2018-07-15T23:51:26.909Z,9.63
2018-07-15T23:53:55.384Z,9.23
2018-07-15T23:56:23.896Z,9.50
2018-07-15T23:58:52.406Z,9.80
